Time;durP1;ratioP1;P1;durP2;ratioP2;P2;SDS_P1;SDS_P2;PMS_P1;PMS_P2;Temp;Humidity;BMP_temperature;BMP_pressure;BME280_temperature;BME280_humidity;BME280_pressure;Samples;Min_cycle;Max_cycle;Signal;HPM_P1;HPM_P2
2023/06/05 00:02:01;;;;;;;;;;;;;;;27.97;21.23;98647.41;5089901;28;19924;-86
2023/06/05 00:04:30;;;;;;;;;;;;;;;27.96;21.29;98640.16;5095544;28;19920;-87
2023/06/05 00:06:57;;;;;;;;;;;;;;;28.00;21.41;98646.53;5087748;28;19927;-87
2023/06/05 00:09:23;;;;;;;;;;;;;;;27.93;21.26;98638.25;5078897;28;19931;-87
2023/06/05 00:11:49;;;;;;;;;;;;;;;27.50;21.97;98640.66;5091178;28;19924;-87
2023/06/05 00:14:15;;;;;;;;;;;;;;;27.00;22.38;98643.97;5086731;28;19931;-86
2023/06/05 00:16:41;;;;;;;;;;;;;;;26.93;22.14;98635.69;5074084;28;19920;-86
2023/06/05 00:19:07;;;;;;;;;;;;;;;27.04;22.14;98641.84;5091592;28;19920;-86
2023/06/05 00:21:33;;;;;;;;;;;;;;;27.35;21.69;98638.19;5090219;28;19920;-86
2023/06/05 00:24:00;;;;;;;;;;;;;;;27.45;22.04;98639.16;5082942;28;20383;-86
2023/06/05 00:26:26;;;;;;;;;;;;;;;27.26;22.14;98637.22;5093186;28;20291;-86
2023/06/05 00:28:52;;;;;;;;;;;;;;;27.09;22.64;98633.66;5093960;28;19920;-85
2023/06/05 00:31:18;;;;;;;;;;;;;;;27.02;22.27;98633.84;5087850;28;19959;-85
2023/06/05 00:33:44;;;;;;;;;;;;;;;26.93;22.34;98636.47;5092952;28;20018;-86
2023/06/05 00:36:11;;;;;;;;;;;;;;;27.04;22.26;98637.00;5091512;28;19920;-85
2023/06/05 00:38:37;;;;;;;;;;;;;;;27.31;22.19;98634.69;5093782;28;19920;-85
2023/06/05 00:41:03;;;;;;;;;;;;;;;27.27;21.93;98642.44;5101376;28;20022;-85
2023/06/05 00:43:29;;;;;;;;;;;;;;;27.46;21.94;98637.16;5094557;28;20387;-85
2023/06/05 00:45:58;;;;;;;;;;;;;;;27.09;22.20;98633.66;5102118;28;19920;-86
2023/06/05 00:48:25;;;;;;;;;;;;;;;26.50;22.85;98635.84;5084022;28;19927;-86
2023/06/05 00:50:51;;;;;;;;;;;;;;;26.52;22.87;98639.81;5094001;28;19926;-86
2023/06/05 00:53:17;;;;;;;;;;;;;;;26.56;22.80;98634.91;5092272;28;19928;-86
2023/06/05 00:55:43;;;;;;;;;;;;;;;26.74;22.53;98635.28;5084565;28;19943;-86
2023/06/05 00:58:09;;;;;;;;;;;;;;;27.11;22.14;98628.38;5098007;28;19920;-86
2023/06/05 01:00:36;;;;;;;;;;;;;;;26.97;22.29;98633.56;5093320;28;19924;-85
2023/06/05 01:03:02;;;;;;;;;;;;;;;27.10;22.06;98632.41;5098381;28;20006;-85
2023/06/05 01:05:28;;;;;;;;;;;;;;;27.10;22.62;98635.22;5102533;28;19926;-86
2023/06/05 01:07:54;;;;;;;;;;;;;;;26.85;22.93;98635.06;5097073;28;19920;-86
2023/06/05 01:10:20;;;;;;;;;;;;;;;26.70;23.25;98637.38;5096302;28;20321;-86
2023/06/05 01:12:53;;;;;;;;;;;;;;;26.75;22.80;98627.66;5094303;28;20009;-86
2023/06/05 01:15:28;;;;;;;;;;;;;;;26.62;22.98;98629.56;5086749;28;19920;-86
2023/06/05 01:17:58;;;;;;;;;;;;;;;26.57;22.99;98627.25;5091243;28;20015;-86
2023/06/05 01:20:33;;;;;;;;;;;;;;;26.80;22.70;98631.97;5092603;28;19927;-86
2023/06/05 01:23:00;;;;;;;;;;;;;;;27.01;22.36;98620.97;5090786;28;20280;-86
2023/06/05 01:25:29;;;;;;;;;;;;;;;27.08;22.08;98626.41;5090094;28;19924;-86
2023/06/05 01:28:00;;;;;;;;;;;;;;;26.98;22.02;98618.25;5088360;28;20010;-86
2023/06/05 01:30:28;;;;;;;;;;;;;;;26.98;22.12;98624.66;5090675;28;19920;-86
2023/06/05 01:32:56;;;;;;;;;;;;;;;27.13;22.12;98623.06;5091957;28;19945;-86
2023/06/05 01:35:32;;;;;;;;;;;;;;;26.87;22.36;98626.16;5087275;28;20360;-86
2023/06/05 01:37:59;;;;;;;;;;;;;;;26.75;22.53;98624.81;5087091;28;19943;-86
2023/06/05 01:40:26;;;;;;;;;;;;;;;26.77;22.56;98638.50;5092458;28;19978;-86
2023/06/05 01:42:53;;;;;;;;;;;;;;;26.89;22.37;98632.13;5093892;28;19930;-86
2023/06/05 01:45:19;;;;;;;;;;;;;;;26.86;22.49;98631.03;5095875;28;19920;-86
2023/06/05 01:47:49;;;;;;;;;;;;;;;26.83;22.48;98631.88;5068492;28;20273;-86
2023/06/05 01:50:16;;;;;;;;;;;;;;;26.80;22.06;98629.13;5078603;28;19921;-86
2023/06/05 01:52:44;;;;;;;;;;;;;;;26.44;22.65;98627.13;5102327;28;19924;-86
2023/06/05 01:55:15;;;;;;;;;;;;;;;26.41;23.34;98628.03;5095014;28;19924;-86
2023/06/05 01:57:41;;;;;;;;;;;;;;;26.18;23.55;98633.78;5096019;28;19978;-87
2023/06/05 02:00:12;;;;;;;;;;;;;;;26.30;23.00;98633.06;5104537;28;19926;-86
2023/06/05 02:02:42;;;;;;;;;;;;;;;26.24;23.29;98628.41;5093886;28;20046;-86
2023/06/05 02:05:12;;;;;;;;;;;;;;;26.13;23.37;98633.47;5096102;28;20191;-86
2023/06/05 02:07:39;;;;;;;;;;;;;;;26.44;22.91;98632.75;5102440;28;20441;-86
2023/06/05 02:10:06;;;;;;;;;;;;;;;26.70;22.26;98633.75;5101507;28;20272;-86
2023/06/05 02:12:32;;;;;;;;;;;;;;;26.66;22.02;98633.06;5103911;28;19919;-86
2023/06/05 02:14:59;;;;;;;;;;;;;;;26.84;22.08;98632.69;5094318;28;20338;-86
2023/06/05 02:17:25;;;;;;;;;;;;;;;26.84;21.78;98638.31;5105705;28;19920;-86
2023/06/05 02:19:51;;;;;;;;;;;;;;;26.63;22.40;98634.72;5097495;28;19923;-86
2023/06/05 02:22:17;;;;;;;;;;;;;;;26.57;22.79;98636.50;5087143;28;20379;-85
2023/06/05 02:24:43;;;;;;;;;;;;;;;26.64;22.39;98639.16;5078059;28;19920;-86
2023/06/05 02:27:10;;;;;;;;;;;;;;;26.78;22.04;98634.44;5099109;28;19912;-86
2023/06/05 02:29:36;;;;;;;;;;;;;;;26.81;22.40;98642.00;5099271;28;19919;-86
2023/06/05 02:32:03;;;;;;;;;;;;;;;26.89;22.05;98635.75;5096655;28;20374;-85
2023/06/05 02:34:29;;;;;;;;;;;;;;;26.48;21.88;98633.50;5093879;28;19959;-85
2023/06/05 02:36:55;;;;;;;;;;;;;;;26.34;22.36;98635.81;5091850;28;20359;-85
2023/06/05 02:39:21;;;;;;;;;;;;;;;26.47;22.72;98634.72;5078430;28;19916;-85
2023/06/05 02:41:47;;;;;;;;;;;;;;;26.67;22.24;98631.84;5103107;28;19928;-85
2023/06/05 02:44:13;;;;;;;;;;;;;;;26.66;22.87;98628.22;5074304;28;19970;-85
2023/06/05 02:46:39;;;;;;;;;;;;;;;26.71;22.40;98630.53;5090742;28;20299;-85
2023/06/05 02:49:05;;;;;;;;;;;;;;;26.82;22.20;98619.03;5095119;28;19920;-85
2023/06/05 02:51:32;;;;;;;;;;;;;;;26.83;22.56;98620.63;5094294;28;19923;-85
2023/06/05 02:53:58;;;;;;;;;;;;;;;26.56;22.72;98625.66;5092696;28;19958;-86
2023/06/05 02:56:26;;;;;;;;;;;;;;;26.25;23.03;98624.38;5097809;28;21704;-85
2023/06/05 02:58:53;;;;;;;;;;;;;;;26.45;22.81;98623.09;5094855;28;19924;-85
2023/06/05 03:01:21;;;;;;;;;;;;;;;26.70;22.77;98622.50;5105811;28;20022;-86
2023/06/05 03:03:48;;;;;;;;;;;;;;;26.74;22.37;98635.28;5101090;28;19920;-86
2023/06/05 03:06:17;;;;;;;;;;;;;;;26.82;22.32;98627.47;5099279;28;20299;-86
2023/06/05 03:08:43;;;;;;;;;;;;;;;26.83;22.51;98634.72;5103700;28;19919;-86
2023/06/05 03:11:09;;;;;;;;;;;;;;;26.98;22.52;98632.34;5111112;28;19973;-86
2023/06/05 03:13:35;;;;;;;;;;;;;;;26.97;22.82;98634.34;5088533;28;20299;-86
2023/06/05 03:16:02;;;;;;;;;;;;;;;26.88;22.53;98630.56;5094823;28;19921;-86
2023/06/05 03:18:28;;;;;;;;;;;;;;;26.81;22.90;98631.53;5097532;28;20017;-86
2023/06/05 03:20:55;;;;;;;;;;;;;;;26.67;23.10;98635.47;5106099;28;19920;-86
2023/06/05 03:23:23;;;;;;;;;;;;;;;26.83;22.64;98636.72;5100227;28;20372;-86
2023/06/05 03:25:49;;;;;;;;;;;;;;;27.00;22.99;98639.09;5080048;28;20422;-86
2023/06/05 03:28:15;;;;;;;;;;;;;;;27.31;22.65;98631.06;5094616;28;20391;-86
2023/06/05 03:30:41;;;;;;;;;;;;;;;27.36;22.70;98633.34;5081569;28;19920;-85
2023/06/05 03:33:07;;;;;;;;;;;;;;;27.35;23.08;98631.78;5089392;28;19927;-86
2023/06/05 03:35:34;;;;;;;;;;;;;;;27.48;22.87;98640.31;5109378;28;19927;-85
2023/06/05 03:38:01;;;;;;;;;;;;;;;27.86;23.37;98636.44;5107038;28;19927;-86
2023/06/05 03:40:27;;;;;;;;;;;;;;;28.42;23.63;98636.81;5104306;28;19916;-86
2023/06/05 03:42:53;;;;;;;;;;;;;;;28.78;23.29;98628.00;5075915;28;20368;-86
2023/06/05 03:45:19;;;;;;;;;;;;;;;28.94;22.93;98636.34;5090706;28;20010;-86
2023/06/05 03:47:48;;;;;;;;;;;;;;;29.00;22.87;98634.56;5089119;28;19920;-86
2023/06/05 03:50:17;;;;;;;;;;;;;;;29.10;23.38;98636.22;5096194;28;19920;-86
2023/06/05 03:52:43;;;;;;;;;;;;;;;29.24;23.29;98635.75;5090931;28;19920;-86
2023/06/05 03:55:09;;;;;;;;;;;;;;;29.54;22.92;98630.72;5093062;28;19962;-86
2023/06/05 03:57:37;;;;;;;;;;;;;;;29.64;22.40;98624.66;5095564;28;19981;-86
2023/06/05 04:00:05;;;;;;;;;;;;;;;29.65;22.44;98620.59;5094032;28;19924;-86
2023/06/05 04:02:31;;;;;;;;;;;;;;;29.69;22.67;98623.28;5089540;28;19920;-85
2023/06/05 04:04:57;;;;;;;;;;;;;;;29.86;23.15;98622.69;5093608;28;19926;-86
2023/06/05 04:07:23;;;;;;;;;;;;;;;30.03;22.16;98624.06;5091787;28;19931;-85
2023/06/05 04:09:49;;;;;;;;;;;;;;;30.10;22.77;98614.50;5092599;28;20019;-85
2023/06/05 04:12:16;;;;;;;;;;;;;;;30.31;22.31;98629.91;5089966;28;19948;-85
2023/06/05 04:14:42;;;;;;;;;;;;;;;30.52;22.29;98623.41;5071262;28;20387;-85
2023/06/05 04:17:10;;;;;;;;;;;;;;;30.70;22.59;98624.28;5092022;28;19920;-86
2023/06/05 04:19:36;;;;;;;;;;;;;;;30.85;22.23;98620.88;5090288;28;20392;-86
2023/06/05 04:22:02;;;;;;;;;;;;;;;30.96;22.18;98624.09;5092801;28;19966;-85
2023/06/05 04:24:29;;;;;;;;;;;;;;;31.00;22.68;98625.50;5090218;28;19931;-86
2023/06/05 04:26:55;;;;;;;;;;;;;;;31.16;22.13;98625.25;5085386;28;19924;-87
2023/06/05 04:29:21;;;;;;;;;;;;;;;31.33;22.11;98617.22;5085705;28;19965;-86
2023/06/05 04:31:47;;;;;;;;;;;;;;;31.53;22.87;98614.75;5083641;28;19993;-86
2023/06/05 04:34:13;;;;;;;;;;;;;;;31.74;22.13;98610.19;5092124;28;19927;-86
2023/06/05 04:36:40;;;;;;;;;;;;;;;31.87;21.94;98619.31;5090045;28;19928;-85
2023/06/05 04:39:14;;;;;;;;;;;;;;;32.01;21.66;98621.56;5093074;28;19951;-85
2023/06/05 04:41:46;;;;;;;;;;;;;;;32.11;21.52;98617.44;5096901;28;19915;-86
2023/06/05 04:44:16;;;;;;;;;;;;;;;32.21;21.44;98621.06;5107343;28;20371;-86
2023/06/05 04:46:45;;;;;;;;;;;;;;;32.37;21.16;98615.00;5092273;28;19924;-87
2023/06/05 04:49:12;;;;;;;;;;;;;;;32.53;21.93;98624.00;5092010;28;19920;-87
2023/06/05 04:51:38;;;;;;;;;;;;;;;32.72;21.33;98621.88;5091994;28;20411;-86
2023/06/05 04:54:05;;;;;;;;;;;;;;;32.86;21.45;98626.81;5095741;28;20399;-84
2023/06/05 04:56:34;;;;;;;;;;;;;;;32.85;22.06;98624.47;5080925;28;19924;-86
2023/06/05 04:59:02;;;;;;;;;;;;;;;32.84;21.16;98618.00;5098736;28;19920;-87
2023/06/05 05:01:28;;;;;;;;;;;;;;;32.95;20.92;98628.84;5068112;28;19920;-83
2023/06/05 05:03:54;;;;;;;;;;;;;;;33.02;21.49;98620.78;5090454;28;20015;-89
2023/06/05 05:06:21;;;;;;;;;;;;;;;32.97;20.82;98632.00;5089612;28;19956;-83
2023/06/05 05:08:50;;;;;;;;;;;;;;;32.83;21.26;98627.00;5092809;28;19920;-84
2023/06/05 05:11:16;;;;;;;;;;;;;;;32.76;21.21;98631.00;5088697;28;19917;-84
2023/06/05 05:13:42;;;;;;;;;;;;;;;33.05;20.74;98621.88;5072829;28;19924;-84
2023/06/05 05:16:09;;;;;;;;;;;;;;;32.94;21.48;98627.28;5072993;28;20354;-84
2023/06/05 05:18:36;;;;;;;;;;;;;;;33.08;21.85;98632.28;5058648;28;20384;-84
2023/06/05 05:21:04;;;;;;;;;;;;;;;33.25;20.81;98628.56;5077011;28;20360;-84
2023/06/05 05:23:31;;;;;;;;;;;;;;;33.05;21.00;98627.56;5098506;28;19972;-84
2023/06/05 05:25:57;;;;;;;;;;;;;;;33.20;20.76;98634.91;5104606;28;20433;-84
2023/06/05 05:28:23;;;;;;;;;;;;;;;33.24;19.98;98629.03;5090786;28;19916;-84
2023/06/05 05:30:51;;;;;;;;;;;;;;;33.11;20.47;98637.81;5080542;28;19974;-84
2023/06/05 05:33:17;;;;;;;;;;;;;;;33.42;19.25;98626.06;5097275;28;19916;-85
2023/06/05 05:35:44;;;;;;;;;;;;;;;33.13;20.40;98623.88;5097296;28;20295;-84
2023/06/05 05:38:10;;;;;;;;;;;;;;;32.89;21.45;98627.91;5096865;28;20065;-85
2023/06/05 05:40:36;;;;;;;;;;;;;;;32.89;21.64;98631.56;5096952;28;19989;-84
2023/06/05 05:43:02;;;;;;;;;;;;;;;33.30;20.65;98633.56;5097410;28;20364;-85
2023/06/05 05:45:28;;;;;;;;;;;;;;;33.24;20.63;98637.56;5089907;28;19917;-84
2023/06/05 05:47:54;;;;;;;;;;;;;;;33.40;21.38;98635.09;5092532;28;19927;-85
2023/06/05 05:50:20;;;;;;;;;;;;;;;33.34;20.61;98628.50;5095216;28;19916;-84
2023/06/05 05:52:47;;;;;;;;;;;;;;;33.38;21.50;98637.63;5096268;28;19950;-85
2023/06/05 05:55:13;;;;;;;;;;;;;;;33.62;20.72;98631.94;5095673;28;20271;-84
2023/06/05 05:57:39;;;;;;;;;;;;;;;33.72;20.59;98632.66;5079427;28;19919;-84
2023/06/05 06:00:12;;;;;;;;;;;;;;;34.11;21.13;98637.09;5094692;28;19958;-84
2023/06/05 06:02:38;;;;;;;;;;;;;;;34.21;21.02;98640.63;5094593;28;20016;-84
2023/06/05 06:05:05;;;;;;;;;;;;;;;34.56;20.43;98636.63;5090751;28;19920;-84
2023/06/05 06:07:31;;;;;;;;;;;;;;;34.61;21.33;98638.78;5099471;28;20018;-84
2023/06/05 06:09:58;;;;;;;;;;;;;;;34.80;19.90;98630.00;5098818;28;19920;-85
2023/06/05 06:12:24;;;;;;;;;;;;;;;35.10;19.76;98640.09;5095453;28;19923;-84
2023/06/05 06:14:50;;;;;;;;;;;;;;;35.33;19.84;98639.94;5096858;28;20018;-84
2023/06/05 06:17:17;;;;;;;;;;;;;;;35.29;19.02;98632.81;5095765;28;19921;-84
2023/06/05 06:19:43;;;;;;;;;;;;;;;35.20;19.04;98635.81;5095259;28;19963;-85
2023/06/05 06:22:11;;;;;;;;;;;;;;;34.29;20.89;98634.03;5076343;28;20371;-85
2023/06/05 06:24:39;;;;;;;;;;;;;;;33.77;20.14;98644.16;5096702;28;19920;-85
2023/06/05 06:27:06;;;;;;;;;;;;;;;33.91;20.52;98642.63;5076638;28;20383;-85
2023/06/05 06:29:32;;;;;;;;;;;;;;;34.83;19.66;98626.16;5092164;28;19915;-84
2023/06/05 06:31:58;;;;;;;;;;;;;;;35.22;19.57;98628.31;5093728;28;20387;-84
2023/06/05 06:34:24;;;;;;;;;;;;;;;35.05;18.87;98641.59;5095341;28;19916;-85
2023/06/05 06:36:50;;;;;;;;;;;;;;;34.87;19.42;98638.94;5094909;28;19928;-84
2023/06/05 06:39:18;;;;;;;;;;;;;;;34.99;19.92;98634.97;5093826;28;19928;-84
2023/06/05 06:41:44;;;;;;;;;;;;;;;35.13;20.59;98630.53;5097709;28;20018;-85
2023/06/05 06:44:10;;;;;;;;;;;;;;;35.09;20.70;98632.81;5094627;28;19928;-84
2023/06/05 06:46:36;;;;;;;;;;;;;;;35.18;20.03;98629.81;5094815;28;20405;-85
2023/06/05 06:49:02;;;;;;;;;;;;;;;34.81;20.73;98629.50;5094182;28;20032;-84
2023/06/05 06:51:28;;;;;;;;;;;;;;;35.21;20.23;98623.13;5093865;28;19916;-85
2023/06/05 06:53:54;;;;;;;;;;;;;;;34.69;20.46;98624.91;5094895;28;20327;-85
2023/06/05 06:56:21;;;;;;;;;;;;;;;34.74;20.12;98618.50;5094295;28;20307;-86
2023/06/05 06:58:47;;;;;;;;;;;;;;;34.11;20.02;98619.19;5077661;28;20363;-85
2023/06/05 07:01:14;;;;;;;;;;;;;;;33.81;21.25;98618.34;5093929;28;19923;-84
2023/06/05 07:03:41;;;;;;;;;;;;;;;33.97;21.17;98617.88;5094260;28;19927;-84
2023/06/05 07:06:09;;;;;;;;;;;;;;;34.48;21.96;98618.31;5094425;28;19920;-85
2023/06/05 07:08:35;;;;;;;;;;;;;;;35.08;20.58;98617.75;5093251;28;19920;-84
2023/06/05 07:11:01;;;;;;;;;;;;;;;35.10;20.53;98617.25;5092890;28;20060;-84
2023/06/05 07:13:27;;;;;;;;;;;;;;;35.12;19.75;98615.50;5093590;28;19930;-85
2023/06/05 07:15:53;;;;;;;;;;;;;;;34.98;21.14;98618.34;5075718;28;20062;-85
2023/06/05 07:18:19;;;;;;;;;;;;;;;35.25;18.41;98615.91;5075418;28;20368;-84
2023/06/05 07:20:45;;;;;;;;;;;;;;;35.51;19.60;98626.66;5093573;28;19916;-85
2023/06/05 07:23:12;;;;;;;;;;;;;;;35.45;18.29;98622.94;5093433;28;20011;-85
2023/06/05 07:25:38;;;;;;;;;;;;;;;35.09;19.22;98622.19;5095805;28;19924;-85
2023/06/05 07:28:08;;;;;;;;;;;;;;;34.86;19.93;98625.16;5091676;28;19926;-85
2023/06/05 07:30:34;;;;;;;;;;;;;;;34.47;19.36;98630.97;5097114;28;19911;-85
2023/06/05 07:33:00;;;;;;;;;;;;;;;34.62;17.94;98633.88;5095110;28;19919;-85
2023/06/05 07:35:26;;;;;;;;;;;;;;;34.59;19.17;98621.38;5094485;28;19965;-84
2023/06/05 07:37:52;;;;;;;;;;;;;;;34.78;19.17;98618.28;5110871;28;19965;-84
2023/06/05 07:40:19;;;;;;;;;;;;;;;34.49;18.81;98619.91;5106596;28;19930;-84
2023/06/05 07:42:45;;;;;;;;;;;;;;;34.51;19.45;98625.88;5082384;28;19924;-84
2023/06/05 07:45:11;;;;;;;;;;;;;;;33.74;19.48;98624.41;5084282;28;19931;-85
2023/06/05 07:47:37;;;;;;;;;;;;;;;33.81;18.54;98618.34;5093439;28;20383;-84
2023/06/05 07:50:05;;;;;;;;;;;;;;;33.95;18.74;98617.59;5099630;28;19989;-84
2023/06/05 07:52:31;;;;;;;;;;;;;;;33.64;19.78;98626.56;5095687;28;20291;-84
2023/06/05 07:54:57;;;;;;;;;;;;;;;34.31;19.12;98620.06;5070724;28;19916;-84
2023/06/05 07:57:29;;;;;;;;;;;;;;;34.22;18.80;98610.84;5094590;28;19916;-84
2023/06/05 07:59:56;;;;;;;;;;;;;;;33.25;19.45;98622.88;5094415;28;19922;-85
2023/06/05 08:02:23;;;;;;;;;;;;;;;32.19;19.69;98615.81;5093847;28;20038;-84
2023/06/05 08:04:49;;;;;;;;;;;;;;;31.33;20.79;98614.38;5095299;28;19920;-85
2023/06/05 08:07:15;;;;;;;;;;;;;;;31.89;20.48;98602.59;5093539;28;20015;-85
2023/06/05 08:09:41;;;;;;;;;;;;;;;32.10;20.37;98610.16;5094217;28;19916;-85
2023/06/05 08:12:07;;;;;;;;;;;;;;;33.12;20.45;98612.97;5105451;28;19924;-84
2023/06/05 08:14:34;;;;;;;;;;;;;;;32.40;18.89;98609.13;5093904;28;19927;-86
2023/06/05 08:17:01;;;;;;;;;;;;;;;33.01;19.37;98596.44;5092814;28;20201;-85
2023/06/05 08:19:28;;;;;;;;;;;;;;;32.84;19.66;98603.75;5078530;28;19921;-86
2023/06/05 08:21:54;;;;;;;;;;;;;;;32.80;18.25;98599.53;5088472;28;19919;-85
2023/06/05 08:24:20;;;;;;;;;;;;;;;32.32;20.28;98601.44;5101970;28;19927;-87
2023/06/05 08:26:46;;;;;;;;;;;;;;;31.69;19.57;98593.78;5096036;28;19920;-84
2023/06/05 08:29:12;;;;;;;;;;;;;;;32.69;18.77;98592.31;5097443;28;20352;-85
2023/06/05 08:31:38;;;;;;;;;;;;;;;33.27;19.22;98597.53;5093344;28;20422;-84
2023/06/05 08:34:05;;;;;;;;;;;;;;;31.40;19.98;98605.56;5093574;28;19958;-86
2023/06/05 08:36:32;;;;;;;;;;;;;;;31.03;19.40;98598.25;5083917;28;19920;-84
2023/06/05 08:38:58;;;;;;;;;;;;;;;31.79;20.44;98607.50;5096211;28;19976;-84
2023/06/05 08:41:25;;;;;;;;;;;;;;;32.16;18.84;98601.78;5093640;28;19923;-84
2023/06/05 08:43:51;;;;;;;;;;;;;;;32.00;19.59;98585.88;5096519;28;19924;-85
2023/06/05 08:46:17;;;;;;;;;;;;;;;32.63;18.06;98602.75;5093355;28;20395;-85
2023/06/05 08:48:47;;;;;;;;;;;;;;;33.06;18.89;98601.47;5074975;28;20379;-86
2023/06/05 08:51:15;;;;;;;;;;;;;;;32.08;19.71;98593.59;5096689;28;19924;-87
2023/06/05 08:53:42;;;;;;;;;;;;;;;32.86;19.00;98601.22;5076345;28;20038;-87
2023/06/05 08:56:08;;;;;;;;;;;;;;;33.38;18.28;98600.63;5083911;28;19927;-86
2023/06/05 08:58:35;;;;;;;;;;;;;;;33.72;17.80;98601.34;5092822;28;20441;-85
2023/06/05 09:01:01;;;;;;;;;;;;;;;32.86;19.45;98609.00;5091933;28;19916;-85
2023/06/05 09:03:27;;;;;;;;;;;;;;;32.78;20.07;98613.44;5093652;28;20437;-86
2023/06/05 09:05:53;;;;;;;;;;;;;;;31.82;20.77;98602.91;5093206;28;19973;-86
2023/06/05 09:08:30;;;;;;;;;;;;;;;32.83;19.73;98598.56;5093540;28;19920;-86
2023/06/05 09:11:15;;;;;;;;;;;;;;;31.86;20.27;98604.31;5074560;28;19932;-86
2023/06/05 09:13:45;;;;;;;;;;;;;;;31.96;20.58;98607.94;5080840;28;19926;-85
2023/06/05 09:16:11;;;;;;;;;;;;;;;32.28;20.08;98600.81;5092936;28;20387;-87
2023/06/05 09:18:58;;;;;;;;;;;;;;;31.71;20.91;98608.28;5108636;28;20367;-87
2023/06/05 09:21:32;;;;;;;;;;;;;;;31.70;21.59;98607.50;5105539;28;19952;-87
2023/06/05 09:24:11;;;;;;;;;;;;;;;31.60;20.65;98597.41;5098089;28;19960;-86
2023/06/05 09:26:57;;;;;;;;;;;;;;;32.63;21.53;98608.44;5083716;28;20312;-86
2023/06/05 09:29:24;;;;;;;;;;;;;;;32.55;20.58;98609.28;5072608;28;19920;-85
2023/06/05 09:31:51;;;;;;;;;;;;;;;31.66;20.85;98608.91;5093657;28;19920;-87
2023/06/05 09:34:22;;;;;;;;;;;;;;;31.54;21.38;98595.66;5094456;28;19922;-85
2023/06/05 09:36:48;;;;;;;;;;;;;;;31.12;21.77;98603.94;5090871;28;19920;-85
2023/06/05 09:39:15;;;;;;;;;;;;;;;31.61;22.12;98604.66;5089990;28;20367;-86
2023/06/05 09:41:45;;;;;;;;;;;;;;;31.67;21.04;98602.75;5072750;28;20011;-85
2023/06/05 09:44:11;;;;;;;;;;;;;;;32.90;20.51;98603.91;5072261;28;20372;-86
2023/06/05 09:46:56;;;;;;;;;;;;;;;33.19;20.39;98592.69;5095497;28;20268;-86
2023/06/05 09:49:26;;;;;;;;;;;;;;;32.49;20.44;98596.94;5087921;28;19966;-86
2023/06/05 09:51:54;;;;;;;;;;;;;;;33.61;19.82;98599.03;5053999;28;19920;-86
2023/06/05 09:54:22;;;;;;;;;;;;;;;33.48;19.36;98592.00;5082124;28;19917;-90
2023/06/05 09:56:51;;;;;;;;;;;;;;;33.79;19.24;98581.81;5066940;28;19916;-87
2023/06/05 09:59:24;;;;;;;;;;;;;;;34.13;19.05;98586.06;5086967;28;19920;-88
2023/06/05 10:01:51;;;;;;;;;;;;;;;32.96;19.29;98582.84;5088105;28;19920;-87
2023/06/05 10:04:19;;;;;;;;;;;;;;;33.96;17.80;98576.41;5096854;28;19919;-88
2023/06/05 10:06:46;;;;;;;;;;;;;;;32.38;19.87;98573.94;5095713;28;20398;-89
2023/06/05 10:09:13;;;;;;;;;;;;;;;32.34;20.17;98571.28;5095442;28;19920;-90
2023/06/05 10:11:40;;;;;;;;;;;;;;;32.98;21.36;98566.06;5093025;28;19928;-86
2023/06/05 10:14:08;;;;;;;;;;;;;;;32.27;21.66;98573.66;5091664;28;19928;-88
2023/06/05 10:16:35;;;;;;;;;;;;;;;32.79;20.48;98569.53;5091373;28;19927;-89
2023/06/05 10:19:02;;;;;;;;;;;;;;;33.55;19.32;98561.13;5095309;28;19927;-88
2023/06/05 10:21:29;;;;;;;;;;;;;;;32.61;20.03;98554.13;5101518;28;19919;-88
2023/06/05 10:23:58;;;;;;;;;;;;;;;33.58;20.40;98556.53;5086297;28;19920;-88
2023/06/05 10:26:43;;;;;;;;;;;;;;;34.39;18.50;98547.13;5096059;28;19970;-87
2023/06/05 10:29:38;;;;;;;;;;;;;;;33.62;19.34;98542.88;5095069;28;19978;-85
2023/06/05 10:32:12;;;;;;;;;;;;;;;34.27;19.41;98553.13;5091095;28;19943;-88
2023/06/05 10:35:02;;;;;;;;;;;;;;;33.96;19.90;98536.50;5058939;28;19971;-89
2023/06/05 10:37:34;;;;;;;;;;;;;;;32.04;20.67;98552.41;5071820;28;19920;-93
2023/06/05 10:40:00;;;;;;;;;;;;;;;33.97;20.56;98552.34;5106135;28;19923;-92
2023/06/05 10:42:27;;;;;;;;;;;;;;;34.45;18.68;98548.00;5095318;28;20376;-91
2023/06/05 10:44:53;;;;;;;;;;;;;;;33.51;18.94;98559.72;5095607;28;20007;-91
2023/06/05 10:47:31;;;;;;;;;;;;;;;33.93;17.62;98546.84;5103167;28;19975;-95
2023/06/05 10:50:15;;;;;;;;;;;;;;;33.24;20.04;98552.97;5096785;28;20019;-90
2023/06/05 10:52:41;;;;;;;;;;;;;;;34.45;19.61;98545.13;5098421;28;19974;-93
2023/06/05 10:55:08;;;;;;;;;;;;;;;34.41;18.79;98544.56;5096818;28;19916;-92
2023/06/05 10:57:53;;;;;;;;;;;;;;;34.49;18.11;98540.03;5107019;28;19955;-91
2023/06/05 11:00:19;;;;;;;;;;;;;;;34.73;17.57;98539.88;5114957;28;19931;-93
2023/06/05 11:02:48;;;;;;;;;;;;;;;34.17;17.43;98540.28;5114298;28;19920;-91
2023/06/05 11:05:14;;;;;;;;;;;;;;;34.37;19.28;98546.03;5110624;28;19916;-94
2023/06/05 11:07:42;;;;;;;;;;;;;;;33.28;20.41;98549.94;5095364;28;20003;-91
2023/06/05 11:10:10;;;;;;;;;;;;;;;33.44;20.01;98540.94;5089717;28;19927;-91
2023/06/05 11:12:39;;;;;;;;;;;;;;;33.58;19.90;98542.28;5095552;28;20355;-93
2023/06/05 11:15:06;;;;;;;;;;;;;;;32.92;21.05;98539.56;5089368;28;19928;-90
2023/06/05 11:17:33;;;;;;;;;;;;;;;34.49;20.44;98539.25;5090392;28;19920;-88
2023/06/05 11:20:00;;;;;;;;;;;;;;;35.07;18.45;98532.63;5093120;28;19969;-89
2023/06/05 11:22:26;;;;;;;;;;;;;;;34.21;19.43;98535.94;5079318;28;20372;-86
2023/06/05 11:25:11;;;;;;;;;;;;;;;33.90;19.87;98530.72;5092133;28;19924;-88
2023/06/05 11:27:40;;;;;;;;;;;;;;;33.46;20.38;98532.69;5084069;28;20341;-89
2023/06/05 11:30:11;;;;;;;;;;;;;;;35.10;19.27;98531.63;5106995;28;19920;-88
2023/06/05 11:32:37;;;;;;;;;;;;;;;36.24;17.68;98521.22;5094786;28;19923;-88
2023/06/05 11:35:04;;;;;;;;;;;;;;;36.88;17.46;98522.69;5093580;28;19923;-88
2023/06/05 11:37:32;;;;;;;;;;;;;;;37.67;15.64;98519.69;5073625;28;20326;-88
2023/06/05 11:39:58;;;;;;;;;;;;;;;35.12;18.35;98529.84;5072942;28;20288;-88
2023/06/05 11:42:24;;;;;;;;;;;;;;;36.03;17.05;98523.38;5078780;28;19919;-87
2023/06/05 11:44:50;;;;;;;;;;;;;;;34.15;18.43;98517.94;5094713;28;19928;-86
2023/06/05 11:47:28;;;;;;;;;;;;;;;34.69;18.12;98522.19;5092579;28;19965;-90
2023/06/05 11:50:06;;;;;;;;;;;;;;;34.11;17.65;98525.91;5091095;28;19928;-88
2023/06/05 11:52:32;;;;;;;;;;;;;;;35.06;18.63;98520.41;5075100;28;20402;-90
2023/06/05 11:55:12;;;;;;;;;;;;;;;33.04;19.84;98521.50;5087142;28;19923;-90
2023/06/05 11:57:39;;;;;;;;;;;;;;;33.28;19.81;98516.53;5106999;28;19920;-88
2023/06/05 12:00:09;;;;;;;;;;;;;;;34.07;19.43;98514.72;5097297;28;19926;-89
2023/06/05 12:02:35;;;;;;;;;;;;;;;35.01;18.89;98508.91;5086834;28;19973;-90
2023/06/05 12:05:01;;;;;;;;;;;;;;;35.89;18.69;98507.09;5102684;28;19942;-90
2023/06/05 12:07:28;;;;;;;;;;;;;;;36.34;17.10;98508.25;5103613;28;19920;-95
2023/06/05 12:09:55;;;;;;;;;;;;;;;35.39;17.29;98509.41;5094526;28;19961;-91
2023/06/05 12:12:21;;;;;;;;;;;;;;;34.68;18.95;98515.69;5093814;28;20387;-89
2023/06/05 12:14:47;;;;;;;;;;;;;;;34.73;18.14;98511.34;5093760;28;19931;-91
2023/06/05 12:17:13;;;;;;;;;;;;;;;34.75;17.07;98506.72;5095732;28;19920;-83
2023/06/05 12:19:40;;;;;;;;;;;;;;;36.47;17.23;98511.53;5089671;28;20188;-84
2023/06/05 12:22:06;;;;;;;;;;;;;;;35.96;18.07;98506.66;5093043;28;19920;-85
2023/06/05 12:24:33;;;;;;;;;;;;;;;34.43;18.98;98506.97;5088466;28;19958;-85
2023/06/05 12:27:00;;;;;;;;;;;;;;;35.98;18.07;98509.81;5091949;28;19931;-84
2023/06/05 12:29:33;;;;;;;;;;;;;;;37.05;17.75;98497.81;5090090;28;19916;-84
2023/06/05 12:32:03;;;;;;;;;;;;;;;36.64;17.24;98508.78;5088182;28;19985;-84
2023/06/05 12:34:56;;;;;;;;;;;;;;;35.71;17.29;98498.09;5068170;28;19922;-84
2023/06/05 12:37:34;;;;;;;;;;;;;;;36.15;17.99;98484.22;5066764;28;19927;-83
2023/06/05 12:40:01;;;;;;;;;;;;;;;35.64;17.59;98490.72;5092023;28;19927;-83
2023/06/05 12:42:27;;;;;;;;;;;;;;;35.48;19.76;98488.44;5089844;28;19955;-83
2023/06/05 12:44:53;;;;;;;;;;;;;;;35.59;17.94;98480.03;5087106;28;19924;-84
2023/06/05 12:47:20;;;;;;;;;;;;;;;35.92;18.78;98473.84;5093916;28;19923;-84
2023/06/05 12:49:46;;;;;;;;;;;;;;;36.06;18.62;98468.00;5095531;28;19958;-84
2023/06/05 12:52:12;;;;;;;;;;;;;;;36.13;18.19;98463.91;5090264;28;20268;-84